sensor_id;sensor_type;location;lat;lon;timestamp;P1;durP1;ratioP1;P2;durP2;ratioP2
3841;SDS011;1936;47.074;15.336;2022-11-20T00:01:09;25.60;;;15.35;;
3841;SDS011;1936;47.074;15.336;2022-11-20T00:03:13;31.90;;;15.27;;
3841;SDS011;1936;47.074;15.336;2022-11-20T00:05:16;22.55;;;14.32;;
3841;SDS011;1936;47.074;15.336;2022-11-20T00:07:20;24.00;;;15.18;;
3841;SDS011;1936;47.074;15.336;2022-11-20T00:09:24;26.90;;;16.35;;
3841;SDS011;1936;47.074;15.336;2022-11-20T00:11:29;36.75;;;16.23;;
3841;SDS011;1936;47.074;15.336;2022-11-20T00:13:33;36.63;;;15.48;;
3841;SDS011;1936;47.074;15.336;2022-11-20T00:15:37;19.85;;;13.35;;
3841;SDS011;1936;47.074;15.336;2022-11-20T00:17:40;19.35;;;12.52;;
3841;SDS011;1936;47.074;15.336;2022-11-20T00:19:43;19.50;;;12.95;;
3841;SDS011;1936;47.074;15.336;2022-11-20T00:21:46;12.43;;;10.55;;
3841;SDS011;1936;47.074;15.336;2022-11-20T00:23:53;22.27;;;13.07;;
3841;SDS011;1936;47.074;15.336;2022-11-20T00:26:00;25.45;;;15.15;;
3841;SDS011;1936;47.074;15.336;2022-11-20T00:28:06;21.35;;;13.30;;
3841;SDS011;1936;47.074;15.336;2022-11-20T00:30:10;21.55;;;13.27;;
3841;SDS011;1936;47.074;15.336;2022-11-20T00:32:15;22.02;;;13.68;;
3841;SDS011;1936;47.074;15.336;2022-11-20T00:34:18;26.15;;;14.45;;
3841;SDS011;1936;47.074;15.336;2022-11-20T00:36:22;23.40;;;14.50;;
3841;SDS011;1936;47.074;15.336;2022-11-20T00:38:27;19.95;;;13.50;;
3841;SDS011;1936;47.074;15.336;2022-11-20T00:40:30;22.70;;;12.95;;
3841;SDS011;1936;47.074;15.336;2022-11-20T00:42:34;28.10;;;16.30;;
3841;SDS011;1936;47.074;15.336;2022-11-20T00:44:38;22.17;;;14.02;;
3841;SDS011;1936;47.074;15.336;2022-11-20T00:46:41;27.52;;;15.13;;
3841;SDS011;1936;47.074;15.336;2022-11-20T00:48:45;34.05;;;18.27;;
3841;SDS011;1936;47.074;15.336;2022-11-20T00:50:48;22.35;;;15.30;;
3841;SDS011;1936;47.074;15.336;2022-11-20T00:52:52;25.10;;;16.05;;
3841;SDS011;1936;47.074;15.336;2022-11-20T00:54:55;25.58;;;14.25;;
3841;SDS011;1936;47.074;15.336;2022-11-20T00:56:58;26.23;;;16.23;;
3841;SDS011;1936;47.074;15.336;2022-11-20T00:59:02;25.42;;;14.15;;
3841;SDS011;1936;47.074;15.336;2022-11-20T01:01:08;25.58;;;14.32;;
3841;SDS011;1936;47.074;15.336;2022-11-20T01:03:13;24.00;;;13.80;;
3841;SDS011;1936;47.074;15.336;2022-11-20T01:05:16;20.95;;;13.77;;
3841;SDS011;1936;47.074;15.336;2022-11-20T01:07:20;23.60;;;13.77;;
3841;SDS011;1936;47.074;15.336;2022-11-20T01:09:23;16.23;;;11.45;;
3841;SDS011;1936;47.074;15.336;2022-11-20T01:11:27;17.55;;;11.50;;
3841;SDS011;1936;47.074;15.336;2022-11-20T01:13:32;18.25;;;12.88;;
3841;SDS011;1936;47.074;15.336;2022-11-20T01:15:41;19.67;;;12.73;;
3841;SDS011;1936;47.074;15.336;2022-11-20T01:17:45;18.10;;;13.13;;
3841;SDS011;1936;47.074;15.336;2022-11-20T01:19:49;22.02;;;11.85;;
3841;SDS011;1936;47.074;15.336;2022-11-20T01:21:53;23.00;;;12.50;;
3841;SDS011;1936;47.074;15.336;2022-11-20T01:23:57;17.92;;;12.13;;
3841;SDS011;1936;47.074;15.336;2022-11-20T01:26:01;21.50;;;12.65;;
3841;SDS011;1936;47.074;15.336;2022-11-20T01:28:05;15.73;;;11.50;;
3841;SDS011;1936;47.074;15.336;2022-11-20T01:30:09;15.13;;;11.00;;
3841;SDS011;1936;47.074;15.336;2022-11-20T01:32:13;18.00;;;12.88;;
3841;SDS011;1936;47.074;15.336;2022-11-20T01:34:18;15.90;;;10.25;;
3841;SDS011;1936;47.074;15.336;2022-11-20T01:36:23;14.75;;;10.60;;
3841;SDS011;1936;47.074;15.336;2022-11-20T01:38:28;17.58;;;11.02;;
3841;SDS011;1936;47.074;15.336;2022-11-20T01:40:35;20.02;;;13.70;;
3841;SDS011;1936;47.074;15.336;2022-11-20T01:42:38;17.25;;;11.73;;
3841;SDS011;1936;47.074;15.336;2022-11-20T01:47:44;16.42;;;10.60;;
3841;SDS011;1936;47.074;15.336;2022-11-20T01:49:52;14.73;;;10.77;;
3841;SDS011;1936;47.074;15.336;2022-11-20T01:52:01;12.93;;;8.82;;
3841;SDS011;1936;47.074;15.336;2022-11-20T01:54:08;13.68;;;11.13;;
3841;SDS011;1936;47.074;15.336;2022-11-20T01:56:15;14.02;;;10.30;;
3841;SDS011;1936;47.074;15.336;2022-11-20T01:58:18;15.98;;;10.50;;
3841;SDS011;1936;47.074;15.336;2022-11-20T02:00:25;17.95;;;10.77;;
3841;SDS011;1936;47.074;15.336;2022-11-20T02:02:28;17.52;;;10.10;;
3841;SDS011;1936;47.074;15.336;2022-11-20T02:04:32;15.18;;;10.63;;
3841;SDS011;1936;47.074;15.336;2022-11-20T02:06:38;18.85;;;11.68;;
3841;SDS011;1936;47.074;15.336;2022-11-20T02:08:45;16.65;;;11.70;;
3841;SDS011;1936;47.074;15.336;2022-11-20T02:10:48;18.15;;;12.90;;
3841;SDS011;1936;47.074;15.336;2022-11-20T02:12:51;19.02;;;11.18;;
3841;SDS011;1936;47.074;15.336;2022-11-20T02:15:12;16.55;;;11.82;;
3841;SDS011;1936;47.074;15.336;2022-11-20T02:17:16;19.00;;;11.35;;
3841;SDS011;1936;47.074;15.336;2022-11-20T02:19:21;18.27;;;12.32;;
3841;SDS011;1936;47.074;15.336;2022-11-20T02:21:30;17.58;;;11.50;;
3841;SDS011;1936;47.074;15.336;2022-11-20T02:25:59;14.00;;;10.15;;
3841;SDS011;1936;47.074;15.336;2022-11-20T02:28:06;12.05;;;9.52;;
3841;SDS011;1936;47.074;15.336;2022-11-20T02:30:10;15.05;;;10.30;;
3841;SDS011;1936;47.074;15.336;2022-11-20T02:32:17;14.40;;;11.38;;
3841;SDS011;1936;47.074;15.336;2022-11-20T02:34:24;12.65;;;9.95;;
3841;SDS011;1936;47.074;15.336;2022-11-20T02:36:28;14.75;;;10.55;;
3841;SDS011;1936;47.074;15.336;2022-11-20T02:38:35;13.48;;;10.20;;
3841;SDS011;1936;47.074;15.336;2022-11-20T02:40:40;15.55;;;11.50;;
3841;SDS011;1936;47.074;15.336;2022-11-20T02:42:43;18.30;;;13.38;;
3841;SDS011;1936;47.074;15.336;2022-11-20T02:44:47;15.38;;;10.32;;
3841;SDS011;1936;47.074;15.336;2022-11-20T02:46:50;15.48;;;10.48;;
3841;SDS011;1936;47.074;15.336;2022-11-20T02:48:53;13.63;;;9.52;;
3841;SDS011;1936;47.074;15.336;2022-11-20T02:50:56;14.00;;;9.70;;
3841;SDS011;1936;47.074;15.336;2022-11-20T02:53:00;15.88;;;10.23;;
3841;SDS011;1936;47.074;15.336;2022-11-20T02:55:03;14.07;;;9.95;;
3841;SDS011;1936;47.074;15.336;2022-11-20T02:57:08;13.63;;;11.50;;
3841;SDS011;1936;47.074;15.336;2022-11-20T02:59:15;15.02;;;10.13;;
3841;SDS011;1936;47.074;15.336;2022-11-20T03:01:18;14.70;;;10.23;;
3841;SDS011;1936;47.074;15.336;2022-11-20T03:03:22;13.90;;;10.40;;
3841;SDS011;1936;47.074;15.336;2022-11-20T03:05:25;15.10;;;9.75;;
3841;SDS011;1936;47.074;15.336;2022-11-20T03:07:28;12.70;;;9.95;;
3841;SDS011;1936;47.074;15.336;2022-11-20T03:09:32;15.15;;;10.25;;
3841;SDS011;1936;47.074;15.336;2022-11-20T03:11:35;13.25;;;9.48;;
3841;SDS011;1936;47.074;15.336;2022-11-20T03:13:40;14.85;;;10.25;;
3841;SDS011;1936;47.074;15.336;2022-11-20T03:15:43;14.43;;;9.75;;
3841;SDS011;1936;47.074;15.336;2022-11-20T03:17:46;20.33;;;10.88;;
3841;SDS011;1936;47.074;15.336;2022-11-20T03:19:50;13.52;;;9.05;;
3841;SDS011;1936;47.074;15.336;2022-11-20T03:21:53;17.80;;;11.63;;
3841;SDS011;1936;47.074;15.336;2022-11-20T03:23:56;14.05;;;9.95;;
3841;SDS011;1936;47.074;15.336;2022-11-20T03:26:10;14.05;;;10.75;;
3841;SDS011;1936;47.074;15.336;2022-11-20T03:28:14;20.27;;;10.40;;
3841;SDS011;1936;47.074;15.336;2022-11-20T03:30:19;15.80;;;10.52;;
3841;SDS011;1936;47.074;15.336;2022-11-20T03:32:29;13.80;;;10.25;;
3841;SDS011;1936;47.074;15.336;2022-11-20T03:34:32;15.05;;;10.52;;
3841;SDS011;1936;47.074;15.336;2022-11-20T03:36:37;15.05;;;9.48;;
3841;SDS011;1936;47.074;15.336;2022-11-20T03:38:41;18.15;;;11.60;;
3841;SDS011;1936;47.074;15.336;2022-11-20T03:40:44;29.15;;;11.55;;
3841;SDS011;1936;47.074;15.336;2022-11-20T03:42:48;24.48;;;12.00;;
3841;SDS011;1936;47.074;15.336;2022-11-20T03:44:51;18.08;;;11.65;;
3841;SDS011;1936;47.074;15.336;2022-11-20T03:46:56;21.95;;;10.18;;
3841;SDS011;1936;47.074;15.336;2022-11-20T03:48:59;16.77;;;10.52;;
3841;SDS011;1936;47.074;15.336;2022-11-20T03:51:06;18.20;;;10.27;;
3841;SDS011;1936;47.074;15.336;2022-11-20T03:53:11;23.35;;;10.73;;
3841;SDS011;1936;47.074;15.336;2022-11-20T03:55:14;16.33;;;11.05;;
3841;SDS011;1936;47.074;15.336;2022-11-20T03:57:17;19.58;;;10.82;;
3841;SDS011;1936;47.074;15.336;2022-11-20T03:59:21;22.65;;;11.88;;
3841;SDS011;1936;47.074;15.336;2022-11-20T04:01:25;38.20;;;16.40;;
3841;SDS011;1936;47.074;15.336;2022-11-20T04:03:32;21.08;;;10.68;;
3841;SDS011;1936;47.074;15.336;2022-11-20T04:05:35;24.08;;;13.63;;
3841;SDS011;1936;47.074;15.336;2022-11-20T04:07:39;23.67;;;12.82;;
3841;SDS011;1936;47.074;15.336;2022-11-20T04:09:42;23.60;;;12.85;;
3841;SDS011;1936;47.074;15.336;2022-11-20T04:11:46;23.52;;;12.82;;
3841;SDS011;1936;47.074;15.336;2022-11-20T04:13:50;32.13;;;13.05;;
3841;SDS011;1936;47.074;15.336;2022-11-20T04:15:56;37.28;;;14.50;;
3841;SDS011;1936;47.074;15.336;2022-11-20T04:18:00;22.58;;;12.50;;
3841;SDS011;1936;47.074;15.336;2022-11-20T04:20:05;27.17;;;13.27;;
3841;SDS011;1936;47.074;15.336;2022-11-20T04:22:09;17.20;;;10.20;;
3841;SDS011;1936;47.074;15.336;2022-11-20T04:24:13;19.95;;;11.30;;
3841;SDS011;1936;47.074;15.336;2022-11-20T04:26:16;22.27;;;11.77;;
3841;SDS011;1936;47.074;15.336;2022-11-20T04:28:20;19.15;;;10.98;;
3841;SDS011;1936;47.074;15.336;2022-11-20T04:30:23;21.85;;;11.50;;
3841;SDS011;1936;47.074;15.336;2022-11-20T04:32:27;17.73;;;11.20;;
3841;SDS011;1936;47.074;15.336;2022-11-20T04:34:30;18.63;;;10.30;;
3841;SDS011;1936;47.074;15.336;2022-11-20T04:36:35;28.20;;;11.23;;
3841;SDS011;1936;47.074;15.336;2022-11-20T04:38:38;24.63;;;12.35;;
3841;SDS011;1936;47.074;15.336;2022-11-20T04:40:42;24.23;;;13.50;;
3841;SDS011;1936;47.074;15.336;2022-11-20T04:42:45;28.30;;;12.80;;
3841;SDS011;1936;47.074;15.336;2022-11-20T04:44:49;24.40;;;11.63;;
3841;SDS011;1936;47.074;15.336;2022-11-20T04:46:52;27.17;;;12.90;;
3841;SDS011;1936;47.074;15.336;2022-11-20T04:48:56;20.88;;;11.25;;
3841;SDS011;1936;47.074;15.336;2022-11-20T04:51:02;22.85;;;13.15;;
3841;SDS011;1936;47.074;15.336;2022-11-20T04:53:07;23.15;;;11.25;;
3841;SDS011;1936;47.074;15.336;2022-11-20T04:55:11;17.80;;;10.65;;
3841;SDS011;1936;47.074;15.336;2022-11-20T04:57:14;17.95;;;10.35;;
3841;SDS011;1936;47.074;15.336;2022-11-20T04:59:18;20.77;;;10.68;;
3841;SDS011;1936;47.074;15.336;2022-11-20T05:01:22;16.13;;;9.95;;
3841;SDS011;1936;47.074;15.336;2022-11-20T05:03:27;15.40;;;10.48;;
3841;SDS011;1936;47.074;15.336;2022-11-20T05:05:30;18.52;;;10.77;;
3841;SDS011;1936;47.074;15.336;2022-11-20T05:07:34;15.73;;;10.55;;
3841;SDS011;1936;47.074;15.336;2022-11-20T05:09:38;15.82;;;11.38;;
3841;SDS011;1936;47.074;15.336;2022-11-20T05:11:41;15.23;;;9.27;;
3841;SDS011;1936;47.074;15.336;2022-11-20T05:13:51;20.42;;;11.13;;
3841;SDS011;1936;47.074;15.336;2022-11-20T05:15:54;16.13;;;10.27;;
3841;SDS011;1936;47.074;15.336;2022-11-20T05:17:58;26.77;;;10.73;;
3841;SDS011;1936;47.074;15.336;2022-11-20T05:20:01;19.48;;;11.88;;
3841;SDS011;1936;47.074;15.336;2022-11-20T05:22:04;15.57;;;9.50;;
3841;SDS011;1936;47.074;15.336;2022-11-20T05:24:08;27.55;;;11.30;;
3841;SDS011;1936;47.074;15.336;2022-11-20T05:26:14;19.70;;;10.23;;
3841;SDS011;1936;47.074;15.336;2022-11-20T05:28:19;23.00;;;10.35;;
3841;SDS011;1936;47.074;15.336;2022-11-20T05:30:22;24.20;;;12.55;;
3841;SDS011;1936;47.074;15.336;2022-11-20T05:32:26;22.05;;;12.63;;
3841;SDS011;1936;47.074;15.336;2022-11-20T05:34:29;18.15;;;10.88;;
3841;SDS011;1936;47.074;15.336;2022-11-20T05:36:32;17.27;;;10.18;;
3841;SDS011;1936;47.074;15.336;2022-11-20T05:38:36;21.27;;;9.93;;
3841;SDS011;1936;47.074;15.336;2022-11-20T05:40:39;25.10;;;11.40;;
3841;SDS011;1936;47.074;15.336;2022-11-20T05:42:44;18.83;;;11.30;;
3841;SDS011;1936;47.074;15.336;2022-11-20T05:44:47;18.73;;;10.75;;
3841;SDS011;1936;47.074;15.336;2022-11-20T05:46:50;14.23;;;9.95;;
3841;SDS011;1936;47.074;15.336;2022-11-20T05:48:54;19.42;;;10.80;;
3841;SDS011;1936;47.074;15.336;2022-11-20T05:50:57;16.88;;;10.55;;
3841;SDS011;1936;47.074;15.336;2022-11-20T05:53:01;22.17;;;10.45;;
3841;SDS011;1936;47.074;15.336;2022-11-20T05:55:05;19.30;;;11.80;;
3841;SDS011;1936;47.074;15.336;2022-11-20T05:57:08;23.92;;;10.90;;
3841;SDS011;1936;47.074;15.336;2022-11-20T05:59:13;21.35;;;11.20;;
3841;SDS011;1936;47.074;15.336;2022-11-20T06:01:17;19.40;;;10.18;;
3841;SDS011;1936;47.074;15.336;2022-11-20T06:03:22;12.70;;;9.00;;
3841;SDS011;1936;47.074;15.336;2022-11-20T06:05:25;16.08;;;8.80;;
3841;SDS011;1936;47.074;15.336;2022-11-20T06:07:29;42.65;;;10.70;;
3841;SDS011;1936;47.074;15.336;2022-11-20T06:09:33;22.58;;;9.02;;
3841;SDS011;1936;47.074;15.336;2022-11-20T06:11:36;14.60;;;9.00;;
3841;SDS011;1936;47.074;15.336;2022-11-20T06:13:40;24.05;;;9.27;;
3841;SDS011;1936;47.074;15.336;2022-11-20T06:15:49;19.48;;;9.75;;
3841;SDS011;1936;47.074;15.336;2022-11-20T06:17:53;18.30;;;9.82;;
3841;SDS011;1936;47.074;15.336;2022-11-20T06:19:56;14.00;;;8.95;;
3841;SDS011;1936;47.074;15.336;2022-11-20T06:21:59;13.32;;;9.70;;
3841;SDS011;1936;47.074;15.336;2022-11-20T06:24:03;16.42;;;9.38;;
3841;SDS011;1936;47.074;15.336;2022-11-20T06:26:07;18.10;;;10.63;;
3841;SDS011;1936;47.074;15.336;2022-11-20T06:28:14;19.00;;;11.82;;
3841;SDS011;1936;47.074;15.336;2022-11-20T06:30:17;17.92;;;11.10;;
3841;SDS011;1936;47.074;15.336;2022-11-20T06:32:22;15.05;;;11.48;;
3841;SDS011;1936;47.074;15.336;2022-11-20T06:34:26;17.48;;;10.15;;
3841;SDS011;1936;47.074;15.336;2022-11-20T06:36:29;16.65;;;10.45;;
3841;SDS011;1936;47.074;15.336;2022-11-20T06:38:32;14.60;;;9.25;;
3841;SDS011;1936;47.074;15.336;2022-11-20T06:40:36;18.08;;;11.32;;
3841;SDS011;1936;47.074;15.336;2022-11-20T06:42:41;17.23;;;11.25;;
3841;SDS011;1936;47.074;15.336;2022-11-20T06:44:45;12.10;;;10.00;;
3841;SDS011;1936;47.074;15.336;2022-11-20T06:46:48;20.77;;;10.02;;
3841;SDS011;1936;47.074;15.336;2022-11-20T06:48:52;12.48;;;10.07;;
3841;SDS011;1936;47.074;15.336;2022-11-20T06:50:56;16.67;;;10.88;;
3841;SDS011;1936;47.074;15.336;2022-11-20T06:53:02;15.93;;;11.63;;
3841;SDS011;1936;47.074;15.336;2022-11-20T06:55:07;15.52;;;10.40;;
3841;SDS011;1936;47.074;15.336;2022-11-20T06:57:10;15.65;;;9.68;;
3841;SDS011;1936;47.074;15.336;2022-11-20T06:59:13;15.63;;;11.55;;
3841;SDS011;1936;47.074;15.336;2022-11-20T07:01:16;13.98;;;9.70;;
3841;SDS011;1936;47.074;15.336;2022-11-20T07:03:20;12.50;;;9.48;;
3841;SDS011;1936;47.074;15.336;2022-11-20T07:05:25;14.43;;;9.35;;
3841;SDS011;1936;47.074;15.336;2022-11-20T07:07:28;12.95;;;8.90;;
3841;SDS011;1936;47.074;15.336;2022-11-20T07:09:31;14.05;;;9.32;;
3841;SDS011;1936;47.074;15.336;2022-11-20T07:11:35;11.60;;;8.13;;
3841;SDS011;1936;47.074;15.336;2022-11-20T07:13:38;11.85;;;8.23;;
3841;SDS011;1936;47.074;15.336;2022-11-20T07:15:41;13.98;;;9.63;;
3841;SDS011;1936;47.074;15.336;2022-11-20T07:17:45;17.67;;;9.60;;
3841;SDS011;1936;47.074;15.336;2022-11-20T07:19:48;10.95;;;8.50;;
3841;SDS011;1936;47.074;15.336;2022-11-20T07:21:53;12.30;;;9.27;;
3841;SDS011;1936;47.074;15.336;2022-11-20T07:23:56;10.25;;;8.30;;
3841;SDS011;1936;47.074;15.336;2022-11-20T07:26:02;12.15;;;8.98;;
3841;SDS011;1936;47.074;15.336;2022-11-20T07:28:06;11.20;;;7.80;;
3841;SDS011;1936;47.074;15.336;2022-11-20T07:30:09;14.57;;;8.55;;
3841;SDS011;1936;47.074;15.336;2022-11-20T07:32:14;11.75;;;8.63;;
3841;SDS011;1936;47.074;15.336;2022-11-20T07:34:17;15.70;;;10.30;;
3841;SDS011;1936;47.074;15.336;2022-11-20T07:36:21;12.13;;;9.80;;
3841;SDS011;1936;47.074;15.336;2022-11-20T07:38:25;16.05;;;9.93;;
3841;SDS011;1936;47.074;15.336;2022-11-20T07:40:29;13.75;;;10.18;;
3841;SDS011;1936;47.074;15.336;2022-11-20T07:42:32;14.60;;;10.18;;
3841;SDS011;1936;47.074;15.336;2022-11-20T07:44:35;16.10;;;10.05;;
3841;SDS011;1936;47.074;15.336;2022-11-20T07:46:39;12.88;;;9.23;;
3841;SDS011;1936;47.074;15.336;2022-11-20T07:48:42;11.40;;;9.77;;
3841;SDS011;1936;47.074;15.336;2022-11-20T07:50:45;15.90;;;12.25;;
3841;SDS011;1936;47.074;15.336;2022-11-20T07:52:48;21.25;;;14.98;;
3841;SDS011;1936;47.074;15.336;2022-11-20T07:54:53;18.40;;;14.05;;
3841;SDS011;1936;47.074;15.336;2022-11-20T07:56:56;20.30;;;14.98;;
3841;SDS011;1936;47.074;15.336;2022-11-20T07:59:00;18.85;;;13.70;;
3841;SDS011;1936;47.074;15.336;2022-11-20T08:01:03;20.88;;;15.15;;
3841;SDS011;1936;47.074;15.336;2022-11-20T08:03:07;19.77;;;12.90;;
3841;SDS011;1936;47.074;15.336;2022-11-20T08:05:10;15.35;;;11.32;;
3841;SDS011;1936;47.074;15.336;2022-11-20T08:07:14;12.90;;;10.10;;
3841;SDS011;1936;47.074;15.336;2022-11-20T08:09:17;14.95;;;11.00;;
3841;SDS011;1936;47.074;15.336;2022-11-20T08:11:22;13.93;;;10.63;;
3841;SDS011;1936;47.074;15.336;2022-11-20T08:13:43;13.43;;;9.88;;
3841;SDS011;1936;47.074;15.336;2022-11-20T08:16:04;12.23;;;9.38;;
3841;SDS011;1936;47.074;15.336;2022-11-20T08:18:08;11.75;;;8.88;;
3841;SDS011;1936;47.074;15.336;2022-11-20T08:20:32;11.18;;;8.82;;
3841;SDS011;1936;47.074;15.336;2022-11-20T08:22:36;11.75;;;8.85;;
3841;SDS011;1936;47.074;15.336;2022-11-20T08:24:39;12.38;;;8.60;;
3841;SDS011;1936;47.074;15.336;2022-11-20T08:26:44;12.35;;;8.10;;
3841;SDS011;1936;47.074;15.336;2022-11-20T08:28:47;11.52;;;8.93;;
3841;SDS011;1936;47.074;15.336;2022-11-20T08:30:51;12.35;;;9.85;;
3841;SDS011;1936;47.074;15.336;2022-11-20T08:33:00;11.30;;;8.90;;
3841;SDS011;1936;47.074;15.336;2022-11-20T08:35:05;14.65;;;9.20;;
3841;SDS011;1936;47.074;15.336;2022-11-20T08:37:08;16.30;;;9.15;;
3841;SDS011;1936;47.074;15.336;2022-11-20T08:39:12;12.80;;;8.52;;
3841;SDS011;1936;47.074;15.336;2022-11-20T08:41:15;13.45;;;8.20;;
3841;SDS011;1936;47.074;15.336;2022-11-20T08:43:30;11.63;;;8.57;;
3841;SDS011;1936;47.074;15.336;2022-11-20T08:45:33;11.45;;;8.02;;
3841;SDS011;1936;47.074;15.336;2022-11-20T08:47:37;12.15;;;9.50;;
3841;SDS011;1936;47.074;15.336;2022-11-20T08:49:40;10.18;;;8.07;;
3841;SDS011;1936;47.074;15.336;2022-11-20T08:51:43;12.57;;;7.72;;
3841;SDS011;1936;47.074;15.336;2022-11-20T08:53:48;10.02;;;8.20;;
3841;SDS011;1936;47.074;15.336;2022-11-20T08:55:51;12.63;;;9.30;;
3841;SDS011;1936;47.074;15.336;2022-11-20T08:57:55;11.60;;;8.63;;
3841;SDS011;1936;47.074;15.336;2022-11-20T09:00:00;11.55;;;8.23;;
3841;SDS011;1936;47.074;15.336;2022-11-20T09:02:08;12.10;;;10.70;;
3841;SDS011;1936;47.074;15.336;2022-11-20T09:04:12;12.13;;;8.90;;
3841;SDS011;1936;47.074;15.336;2022-11-20T09:06:16;10.98;;;8.68;;
3841;SDS011;1936;47.074;15.336;2022-11-20T09:08:21;9.98;;;8.82;;
3841;SDS011;1936;47.074;15.336;2022-11-20T09:10:24;11.05;;;9.88;;
3841;SDS011;1936;47.074;15.336;2022-11-20T09:12:28;13.07;;;9.50;;
3841;SDS011;1936;47.074;15.336;2022-11-20T09:14:31;12.30;;;11.05;;
3841;SDS011;1936;47.074;15.336;2022-11-20T09:16:36;13.48;;;9.50;;
3841;SDS011;1936;47.074;15.336;2022-11-20T09:18:40;15.25;;;9.52;;
3841;SDS011;1936;47.074;15.336;2022-11-20T09:20:43;13.55;;;9.65;;
3841;SDS011;1936;47.074;15.336;2022-11-20T09:22:46;13.57;;;10.90;;
3841;SDS011;1936;47.074;15.336;2022-11-20T09:24:50;12.70;;;9.45;;
3841;SDS011;1936;47.074;15.336;2022-11-20T09:26:53;11.43;;;9.43;;
3841;SDS011;1936;47.074;15.336;2022-11-20T09:28:56;10.82;;;9.18;;
3841;SDS011;1936;47.074;15.336;2022-11-20T09:31:00;11.38;;;9.45;;
3841;SDS011;1936;47.074;15.336;2022-11-20T09:33:07;13.95;;;9.48;;
3841;SDS011;1936;47.074;15.336;2022-11-20T09:35:11;11.27;;;9.07;;
3841;SDS011;1936;47.074;15.336;2022-11-20T09:37:15;10.55;;;8.98;;
3841;SDS011;1936;47.074;15.336;2022-11-20T09:39:18;14.43;;;9.48;;
3841;SDS011;1936;47.074;15.336;2022-11-20T09:41:35;13.00;;;10.20;;
3841;SDS011;1936;47.074;15.336;2022-11-20T09:43:58;15.57;;;12.43;;
3841;SDS011;1936;47.074;15.336;2022-11-20T09:46:09;13.75;;;11.40;;
3841;SDS011;1936;47.074;15.336;2022-11-20T09:48:24;19.63;;;14.68;;
3841;SDS011;1936;47.074;15.336;2022-11-20T09:50:40;20.23;;;15.02;;
3841;SDS011;1936;47.074;15.336;2022-11-20T09:52:53;20.23;;;15.27;;
3841;SDS011;1936;47.074;15.336;2022-11-20T09:55:04;12.10;;;10.50;;
3841;SDS011;1936;47.074;15.336;2022-11-20T09:57:14;12.10;;;9.68;;
3841;SDS011;1936;47.074;15.336;2022-11-20T09:59:28;14.80;;;10.90;;
3841;SDS011;1936;47.074;15.336;2022-11-20T10:01:36;13.33;;;10.90;;
3841;SDS011;1936;47.074;15.336;2022-11-20T10:03:48;13.63;;;9.87;;
3841;SDS011;1936;47.074;15.336;2022-11-20T10:05:56;15.73;;;11.30;;
3841;SDS011;1936;47.074;15.336;2022-11-20T10:08:04;30.10;;;13.37;;
3841;SDS011;1936;47.074;15.336;2022-11-20T10:10:14;17.00;;;12.00;;
3841;SDS011;1936;47.074;15.336;2022-11-20T10:12:22;13.02;;;11.63;;
3841;SDS011;1936;47.074;15.336;2022-11-20T10:14:32;14.87;;;11.93;;
3841;SDS011;1936;47.074;15.336;2022-11-20T10:16:47;12.00;;;10.27;;
3841;SDS011;1936;47.074;15.336;2022-11-20T10:19:06;11.97;;;9.33;;
3841;SDS011;1936;47.074;15.336;2022-11-20T10:21:26;11.47;;;9.50;;
3841;SDS011;1936;47.074;15.336;2022-11-20T10:23:45;10.70;;;8.60;;
3841;SDS011;1936;47.074;15.336;2022-11-20T10:26:04;10.63;;;9.47;;
3841;SDS011;1936;47.074;15.336;2022-11-20T10:28:22;12.87;;;9.83;;
3841;SDS011;1936;47.074;15.336;2022-11-20T10:30:33;10.40;;;9.30;;
3841;SDS011;1936;47.074;15.336;2022-11-20T10:32:41;9.83;;;8.30;;
3841;SDS011;1936;47.074;15.336;2022-11-20T10:34:48;8.40;;;7.57;;
3841;SDS011;1936;47.074;15.336;2022-11-20T10:36:57;9.53;;;8.53;;
3841;SDS011;1936;47.074;15.336;2022-11-20T10:39:06;10.47;;;8.80;;
3841;SDS011;1936;47.074;15.336;2022-11-20T10:41:19;12.00;;;9.73;;
3841;SDS011;1936;47.074;15.336;2022-11-20T10:43:33;8.80;;;7.90;;
3841;SDS011;1936;47.074;15.336;2022-11-20T10:45:44;8.60;;;7.70;;
3841;SDS011;1936;47.074;15.336;2022-11-20T10:47:50;9.07;;;7.80;;
3841;SDS011;1936;47.074;15.336;2022-11-20T10:49:56;9.30;;;8.40;;
3841;SDS011;1936;47.074;15.336;2022-11-20T10:52:04;7.47;;;6.77;;
3841;SDS011;1936;47.074;15.336;2022-11-20T10:54:12;8.20;;;7.40;;
3841;SDS011;1936;47.074;15.336;2022-11-20T10:56:19;10.90;;;9.73;;
3841;SDS011;1936;47.074;15.336;2022-11-20T10:58:25;10.20;;;9.10;;
3841;SDS011;1936;47.074;15.336;2022-11-20T11:00:33;8.60;;;7.63;;
3841;SDS011;1936;47.074;15.336;2022-11-20T11:02:39;8.90;;;7.97;;
3841;SDS011;1936;47.074;15.336;2022-11-20T11:04:43;10.40;;;7.90;;
3841;SDS011;1936;47.074;15.336;2022-11-20T11:06:49;8.97;;;6.37;;
3841;SDS011;1936;47.074;15.336;2022-11-20T11:08:56;8.33;;;7.53;;
3841;SDS011;1936;47.074;15.336;2022-11-20T11:11:07;7.70;;;6.90;;
3841;SDS011;1936;47.074;15.336;2022-11-20T11:13:21;8.10;;;7.30;;
3841;SDS011;1936;47.074;15.336;2022-11-20T11:15:26;8.67;;;7.43;;
3841;SDS011;1936;47.074;15.336;2022-11-20T11:17:30;7.30;;;6.37;;
3841;SDS011;1936;47.074;15.336;2022-11-20T11:19:34;5.30;;;4.80;;
3841;SDS011;1936;47.074;15.336;2022-11-20T11:21:38;6.87;;;5.37;;
3841;SDS011;1936;47.074;15.336;2022-11-20T11:24:00;6.00;;;5.40;;
3841;SDS011;1936;47.074;15.336;2022-11-20T11:26:25;6.23;;;5.63;;
3841;SDS011;1936;47.074;15.336;2022-11-20T11:28:28;6.80;;;5.30;;
3841;SDS011;1936;47.074;15.336;2022-11-20T11:30:40;4.67;;;3.97;;
3841;SDS011;1936;47.074;15.336;2022-11-20T11:32:44;3.67;;;3.37;;
3841;SDS011;1936;47.074;15.336;2022-11-20T11:34:58;3.83;;;3.50;;
3841;SDS011;1936;47.074;15.336;2022-11-20T11:37:02;3.50;;;3.13;;
3841;SDS011;1936;47.074;15.336;2022-11-20T11:39:14;4.23;;;3.13;;
3841;SDS011;1936;47.074;15.336;2022-11-20T11:41:23;3.63;;;3.10;;
3841;SDS011;1936;47.074;15.336;2022-11-20T11:43:33;4.20;;;3.80;;
3841;SDS011;1936;47.074;15.336;2022-11-20T11:45:55;3.43;;;2.97;;
3841;SDS011;1936;47.074;15.336;2022-11-20T11:48:00;2.97;;;2.77;;
3841;SDS011;1936;47.074;15.336;2022-11-20T11:50:14;3.00;;;2.80;;
3841;SDS011;1936;47.074;15.336;2022-11-20T11:52:20;5.03;;;4.53;;
3841;SDS011;1936;47.074;15.336;2022-11-20T11:54:28;4.60;;;4.27;;
3841;SDS011;1936;47.074;15.336;2022-11-20T11:56:37;4.60;;;4.20;;
3841;SDS011;1936;47.074;15.336;2022-11-20T11:58:41;4.33;;;3.83;;
3841;SDS011;1936;47.074;15.336;2022-11-20T12:00:51;6.30;;;4.83;;
3841;SDS011;1936;47.074;15.336;2022-11-20T12:03:02;4.27;;;3.87;;
3841;SDS011;1936;47.074;15.336;2022-11-20T12:05:16;4.67;;;3.27;;
3841;SDS011;1936;47.074;15.336;2022-11-20T12:07:25;8.43;;;3.80;;
3841;SDS011;1936;47.074;15.336;2022-11-20T12:09:49;3.70;;;3.40;;
3841;SDS011;1936;47.074;15.336;2022-11-20T12:11:55;4.33;;;3.93;;
3841;SDS011;1936;47.074;15.336;2022-11-20T12:14:09;3.90;;;3.50;;
3841;SDS011;1936;47.074;15.336;2022-11-20T12:16:17;3.43;;;3.00;;
3841;SDS011;1936;47.074;15.336;2022-11-20T12:18:22;3.80;;;2.40;;
3841;SDS011;1936;47.074;15.336;2022-11-20T12:20:27;4.40;;;4.00;;
3841;SDS011;1936;47.074;15.336;2022-11-20T12:22:34;2.57;;;2.37;;
3841;SDS011;1936;47.074;15.336;2022-11-20T12:24:52;2.90;;;2.60;;
3841;SDS011;1936;47.074;15.336;2022-11-20T12:27:01;3.80;;;3.00;;
3841;SDS011;1936;47.074;15.336;2022-11-20T12:29:08;3.20;;;2.70;;
3841;SDS011;1936;47.074;15.336;2022-11-20T12:31:16;4.47;;;4.07;;
3841;SDS011;1936;47.074;15.336;2022-11-20T12:33:37;3.33;;;2.87;;
3841;SDS011;1936;47.074;15.336;2022-11-20T12:36:01;3.50;;;3.20;;
3841;SDS011;1936;47.074;15.336;2022-11-20T12:38:28;3.27;;;3.07;;
3841;SDS011;1936;47.074;15.336;2022-11-20T12:40:41;4.13;;;3.73;;